Time;durP1;ratioP1;P1;durP2;ratioP2;P2;SDS_P1;SDS_P2;PMS_P1;PMS_P2;Temp;Humidity;BMP_temperature;BMP_pressure;BME280_temperature;BME280_humidity;BME280_pressure;Samples;Min_cycle;Max_cycle;Signal;HPM_P1;HPM_P2
2022/09/26 00:02:16;;;;;;;7.50;1.35;;;;;;;20.36;50.33;100958.91;5019439;28;20041;-80
2022/09/26 00:04:42;;;;;;;7.15;1.13;;;;;;;21.12;48.51;100963.97;5014099;28;20083;-79
2022/09/26 00:07:07;;;;;;;4.28;0.90;;;;;;;20.41;50.04;100957.72;5016051;28;20619;-81
2022/09/26 00:09:33;;;;;;;11.05;1.30;;;;;;;20.11;51.96;100954.78;5035838;28;20025;-80
2022/09/26 00:11:58;;;;;;;3.42;0.82;;;;;;;20.47;49.81;100946.84;5018056;28;20030;-79
2022/09/26 00:14:27;;;;;;;1.70;1.02;;;;;;;20.63;49.07;100951.38;5033444;28;20043;-80
2022/09/26 00:16:52;;;;;;;5.40;1.33;;;;;;;21.08;47.78;100942.00;5032765;28;20033;-80
2022/09/26 00:19:19;;;;;;;5.55;1.30;;;;;;;20.80;48.41;100930.16;5033385;28;20025;-80
2022/09/26 00:21:44;;;;;;;4.85;1.65;;;;;;;20.75;48.66;100926.88;5028886;28;20025;-81
2022/09/26 00:24:10;;;;;;;3.83;1.20;;;;;;;20.56;49.24;100923.41;5032105;28;20026;-80
2022/09/26 00:26:36;;;;;;;4.80;1.30;;;;;;;20.74;48.40;100922.50;5033471;28;20441;-81
2022/09/26 00:29:06;;;;;;;6.78;1.10;;;;;;;20.26;49.62;100911.56;5032238;28;20072;-80
2022/09/26 00:31:33;;;;;;;5.50;1.70;;;;;;;21.69;46.52;100902.44;5032114;28;20025;-80
2022/09/26 00:33:58;;;;;;;2.33;0.90;;;;;;;20.30;48.90;100901.69;5020915;28;20033;-79
2022/09/26 00:36:25;;;;;;;3.92;0.93;;;;;;;19.46;52.60;100905.59;5032137;28;20032;-80
2022/09/26 00:38:50;;;;;;;5.25;1.02;;;;;;;19.17;51.81;100903.44;5031744;28;20052;-78
2022/09/26 00:41:16;;;;;;;2.33;1.00;;;;;;;20.60;49.45;100883.34;5030210;28;20029;-79
2022/09/26 00:43:44;;;;;;;4.85;1.30;;;;;;;19.88;51.94;100873.66;5029730;28;20057;-80
2022/09/26 00:46:24;;;;;;;4.65;1.05;;;;;;;20.06;49.96;100874.56;5033756;28;20100;-81
2022/09/26 00:49:02;;;;;;;5.00;1.10;;;;;;;20.16;51.00;100873.19;5033107;28;20075;-80
2022/09/26 00:51:28;;;;;;;4.53;1.08;;;;;;;19.57;50.70;100861.84;5032914;28;20048;-79
2022/09/26 00:53:54;;;;;;;2.50;1.20;;;;;;;20.43;49.37;100865.63;5015514;28;20474;-80
2022/09/26 00:56:26;;;;;;;5.18;1.05;;;;;;;19.77;51.03;100853.81;5014271;28;20561;-80
2022/09/26 00:59:02;;;;;;;3.35;1.10;;;;;;;20.65;48.63;100845.94;5012662;28;20057;-83
2022/09/26 01:01:28;;;;;;;6.53;1.45;;;;;;;20.59;47.86;100843.59;5021231;28;20041;-80
2022/09/26 01:03:54;;;;;;;3.25;0.98;;;;;;;20.70;48.40;100843.91;5027032;28;20030;-81
2022/09/26 01:06:20;;;;;;;4.63;1.20;;;;;;;20.21;49.57;100834.00;5032165;28;20033;-78
2022/09/26 01:08:55;;;;;;;3.35;1.20;;;;;;;20.02;48.87;100818.16;5040283;28;20033;-78
2022/09/26 01:11:21;;;;;;;8.43;1.30;;;;;;;21.23;46.81;100811.91;5053436;28;20109;-80
2022/09/26 01:13:49;;;;;;;3.28;1.02;;;;;;;20.48;48.71;100812.28;5044220;28;20105;-81
2022/09/26 01:16:15;;;;;;;5.70;1.27;;;;;;;20.35;48.52;100796.16;5034058;28;20234;-80
2022/09/26 01:18:42;;;;;;;2.47;1.00;;;;;;;19.80;49.19;100792.69;5031812;28;20075;-80
2022/09/26 01:21:44;;;;;;;6.25;2.10;;;;;;;21.26;45.88;100771.88;5031084;28;20117;-80
2022/09/26 01:24:25;;;;;;;6.50;2.08;;;;;;;20.87;46.18;100773.97;5045604;28;20037;-80
2022/09/26 01:27:18;;;;;;;4.68;1.10;;;;;;;20.14;47.27;100775.09;5024973;28;20070;-81
2022/09/26 01:30:05;;;;;;;2.30;1.30;;;;;;;21.41;45.37;100763.03;5044559;28;20037;-80
2022/09/26 01:32:47;;;;;;;6.97;1.85;;;;;;;20.21;48.13;100775.63;5037763;28;20037;-81
2022/09/26 01:35:45;;;;;;;3.13;1.77;;;;;;;20.77;47.04;100752.38;5018021;28;20475;-78
2022/09/26 01:38:39;;;;;;;4.63;1.60;;;;;;;20.11;48.47;100754.03;5032266;28;20040;-78
2022/09/26 01:41:40;;;;;;;4.55;1.45;;;;;;;19.58;50.52;100726.56;5031149;28;20031;-80
2022/09/26 01:44:27;;;;;;;3.42;1.98;;;;;;;19.57;50.58;100722.19;5031229;28;20021;-80
2022/09/26 01:47:11;;;;;;;6.93;1.45;;;;;;;20.43;48.53;100724.06;5017977;28;20033;-80
2022/09/26 01:49:39;;;;;;;4.82;1.50;;;;;;;19.02;50.82;100725.72;5013218;28;20030;-79
2022/09/26 01:52:08;;;;;;;5.40;1.60;;;;;;;19.12;50.19;100727.03;5044629;28;20065;-80
2022/09/26 01:54:40;;;;;;;5.38;1.73;;;;;;;19.96;48.41;100718.53;5012446;28;20034;-79
2022/09/26 01:57:12;;;;;;;4.75;1.50;;;;;;;20.00;47.61;100719.19;5030088;28;20025;-80
2022/09/26 01:59:45;;;;;;;4.93;2.08;;;;;;;20.25;47.73;100723.25;5013122;28;20210;-81
2022/09/26 02:02:25;;;;;;;7.85;2.75;;;;;;;19.16;49.37;100717.13;5061506;28;20026;-80
2022/09/26 02:04:56;;;;;;;2.60;1.42;;;;;;;20.35;46.90;100708.56;5031136;28;20555;-80
2022/09/26 02:07:33;;;;;;;1.90;1.50;;;;;;;19.90;46.89;100715.31;5027369;28;20107;-77
2022/09/26 02:10:20;;;;;;;6.53;2.20;;;;;;;19.39;49.77;100716.00;5017244;28;20044;-79
2022/09/26 02:12:53;;;;;;;3.25;1.52;;;;;;;19.57;49.64;100711.59;5028626;28;20057;-79
2022/09/26 02:15:20;;;;;;;;;;;;;;;19.84;47.49;100700.59;5027811;28;20030;-80
2022/09/26 02:17:55;;;;;;;10.52;1.50;;;;;;;19.90;47.69;100691.44;5027616;28;19920;-80
2022/09/26 02:20:30;;;;;;;7.47;2.35;;;;;;;19.10;48.80;100681.19;5031473;28;20115;-79
2022/09/26 02:22:58;;;;;;;4.65;1.58;;;;;;;20.00;46.80;100676.75;5025800;28;20029;-80
2022/09/26 02:25:24;;;;;;;6.00;1.48;;;;;;;19.70;47.17;100664.13;5027687;28;20029;-81
2022/09/26 02:27:49;;;;;;;4.47;1.25;;;;;;;19.49;47.57;100661.63;5015656;28;20025;-80
2022/09/26 02:30:15;;;;;;;5.35;1.30;;;;;;;19.76;46.20;100661.16;5031271;28;20055;-79
2022/09/26 02:32:40;;;;;;;2.35;1.42;;;;;;;20.04;45.96;100661.56;5030538;28;20060;-81
2022/09/26 02:35:52;;;;;;;3.45;1.40;;;;;;;19.50;46.39;100651.88;5030855;28;20029;-81
2022/09/26 02:37:58;;;;;;;5.05;1.35;;;;;;;19.39;46.87;100644.47;5012481;28;20026;-78
2022/09/26 02:40:35;;;;;;;2.80;1.27;;;;;;;18.91;47.22;100648.56;5050373;28;20393;-79
2022/09/26 02:43:19;;;;;;;4.07;1.58;;;;;;;19.60;45.46;100637.19;5025951;28;20120;-78
2022/09/26 02:46:01;;;;;;;4.90;1.40;;;;;;;20.72;43.41;100629.59;5013108;28;20073;-80
2022/09/26 02:48:34;;;;;;;6.10;1.60;;;;;;;19.21;45.21;100632.97;5059247;28;20025;-78
2022/09/26 02:51:09;;;;;;;;;;;;;;;18.06;48.14;100625.97;5030924;28;20397;-79
2022/09/26 02:53:49;;;;;;;4.20;1.88;;;;;;;19.92;44.99;100620.59;5030511;28;19927;-79
2022/09/26 02:56:27;;;;;;;3.92;2.30;;;;;;;19.29;45.52;100614.06;5031111;28;20025;-78
2022/09/26 02:59:32;;;;;;;4.45;2.58;;;;;;;19.31;46.14;100602.44;5030523;28;20048;-80
2022/09/26 03:02:04;;;;;;;4.10;1.60;;;;;;;18.73;45.48;100608.78;5010916;28;20061;-77
2022/09/26 03:04:40;;;;;;;5.20;1.75;;;;;;;18.51;47.47;100597.50;5007866;28;20426;-80
2022/09/26 03:07:15;;;;;;;6.43;1.60;;;;;;;18.37;47.10;100583.13;5017979;28;20120;-76
2022/09/26 03:09:42;;;;;;;6.93;2.00;;;;;;;18.52;46.19;100583.31;5034178;28;20478;-78
2022/09/26 03:12:09;;;;;;;7.20;1.90;;;;;;;19.31;44.33;100588.34;5034195;28;20032;-80
2022/09/26 03:14:37;;;;;;;3.65;1.75;;;;;;;18.86;45.36;100576.41;5025477;28;20025;-79
2022/09/26 03:17:03;;;;;;;4.35;1.63;;;;;;;18.62;47.29;100563.44;5034737;28;20025;-80
2022/09/26 03:19:46;;;;;;;3.70;1.67;;;;;;;19.54;45.11;100546.56;5018887;28;20191;-79
2022/09/26 03:22:13;;;;;;;;;;;;;;;20.07;43.59;100540.22;5027136;28;20025;-79
2022/09/26 03:24:42;;;;;;;6.07;1.60;;;;;;;20.02;43.50;100542.25;5019942;28;19921;-78
2022/09/26 03:27:11;;;;;;;6.38;2.08;;;;;;;19.93;43.60;100527.69;5014976;28;20033;-80
2022/09/26 03:29:37;;;;;;;7.28;1.70;;;;;;;19.08;45.10;100534.72;5017231;28;20383;-78
2022/09/26 03:32:04;;;;;;;2.78;1.63;;;;;;;19.94;43.41;100517.94;5047230;28;20075;-79
2022/09/26 03:34:29;;;;;;;5.10;1.90;;;;;;;20.32;42.74;100525.59;5025064;28;20025;-78
2022/09/26 03:36:55;;;;;;;3.95;1.73;;;;;;;19.81;43.83;100523.03;5027009;28;20024;-80
2022/09/26 03:39:20;;;;;;;6.28;2.15;;;;;;;20.14;43.19;100515.06;5048814;28;20036;-80
2022/09/26 03:41:45;;;;;;;6.15;1.80;;;;;;;19.19;44.95;100510.31;5020162;28;20394;-78
2022/09/26 03:44:11;;;;;;;5.78;1.27;;;;;;;19.17;44.15;100495.47;5030103;28;20022;-76
2022/09/26 03:46:37;;;;;;;4.88;1.88;;;;;;;19.67;43.55;100481.31;5027403;28;20033;-78
2022/09/26 03:49:02;;;;;;;3.28;1.58;;;;;;;19.72;43.26;100476.66;5031077;28;20481;-77
2022/09/26 03:51:27;;;;;;;3.45;1.40;;;;;;;19.41;43.48;100477.41;5030918;28;20036;-77
2022/09/26 03:53:53;;;;;;;6.68;2.63;;;;;;;19.26;44.50;100477.31;5033253;28;20029;-78
2022/09/26 03:56:19;;;;;;;7.10;1.80;;;;;;;19.25;44.60;100477.38;5022865;28;20037;-79
2022/09/26 03:58:46;;;;;;;4.85;1.80;;;;;;;18.96;44.59;100466.50;5053774;28;20021;-77
2022/09/26 04:01:14;;;;;;;5.88;1.48;;;;;;;19.24;45.16;100465.06;5033362;28;20052;-79
2022/09/26 04:03:42;;;;;;;6.93;1.73;;;;;;;19.03;45.44;100456.41;5032984;28;20032;-79
2022/09/26 04:06:09;;;;;;;2.75;1.60;;;;;;;19.48;45.17;100449.66;5024151;28;20116;-79
2022/09/26 04:08:40;;;;;;;2.92;1.40;;;;;;;18.66;47.06;100453.81;5019349;28;20110;-78
2022/09/26 04:11:12;;;;;;;7.30;1.67;;;;;;;18.98;46.52;100438.13;5022860;28;20041;-78
2022/09/26 04:13:38;;;;;;;17.35;2.97;;;;;;;19.34;46.73;100434.47;5046530;28;20044;-78
2022/09/26 04:16:05;;;;;;;4.75;1.45;;;;;;;19.01;47.08;100422.06;5026781;28;20044;-76
2022/09/26 04:18:33;;;;;;;7.38;1.85;;;;;;;18.09;48.77;100415.13;5064375;28;20120;-79
2022/09/26 04:21:07;;;;;;;6.25;2.55;;;;;;;17.71;49.05;100412.47;5023730;28;20036;-77
2022/09/26 04:23:35;;;;;;;9.07;2.13;;;;;;;18.57;48.71;100401.34;5014710;28;20026;-79
2022/09/26 04:26:12;;;;;;;3.97;1.47;;;;;;;18.36;48.72;100404.13;5013534;28;20025;-79
2022/09/26 04:28:38;;;;;;;5.60;1.70;;;;;;;18.87;48.25;100392.78;5028461;28;20117;-80
2022/09/26 04:31:06;;;;;;;9.13;1.87;;;;;;;19.09;47.43;100388.09;5033063;28;20037;-80
2022/09/26 04:33:32;;;;;;;7.13;2.33;;;;;;;18.99;48.22;100384.22;5032680;28;20025;-80
2022/09/26 04:36:09;;;;;;;5.60;1.97;;;;;;;18.97;47.83;100380.78;5029912;28;20028;-78
2022/09/26 04:38:35;;;;;;;3.97;1.90;;;;;;;19.71;46.94;100363.56;5014110;28;20022;-81
2022/09/26 04:41:15;;;;;;;5.23;2.30;;;;;;;18.71;48.14;100376.81;5028566;28;20473;-79
2022/09/26 04:43:42;;;;;;;7.15;2.72;;;;;;;19.07;48.50;100360.84;5013784;28;20497;-81
2022/09/26 04:46:17;;;;;;;6.57;2.10;;;;;;;18.54;49.00;100362.66;5012793;28;20054;-81
2022/09/26 04:48:43;;;;;;;6.33;2.20;;;;;;;19.01;48.88;100358.50;5013135;28;20045;-80
2022/09/26 04:51:11;;;;;;;4.00;2.20;;;;;;;18.93;48.49;100342.16;5013269;28;20119;-79
2022/09/26 04:53:38;;;;;;;7.70;2.73;;;;;;;18.87;49.52;100339.81;5026194;28;20083;-79
2022/09/26 04:56:04;;;;;;;10.43;2.90;;;;;;;17.39;52.22;100345.25;5031455;28;20037;-79
2022/09/26 04:58:30;;;;;;;4.87;2.47;;;;;;;18.77;50.23;100332.34;5018240;28;20029;-79
2022/09/26 05:01:01;;;;;;;6.00;2.10;;;;;;;18.54;50.79;100327.41;5028093;28;20037;-79
2022/09/26 05:03:28;;;;;;;8.73;2.60;;;;;;;18.25;50.59;100324.44;5029431;28;20496;-79
2022/09/26 05:05:54;;;;;;;4.73;2.07;;;;;;;18.75;49.88;100322.78;5033920;28;20037;-79
2022/09/26 05:08:22;;;;;;;4.47;2.23;;;;;;;18.96;50.10;100321.69;5031785;28;20021;-80
2022/09/26 05:10:52;;;;;;;10.00;3.80;;;;;;;19.12;49.09;100313.78;5033316;28;20018;-80
2022/09/26 05:13:18;;;;;;;7.87;2.77;;;;;;;19.28;48.01;100307.66;5013933;28;20025;-81
2022/09/26 05:15:43;;;;;;;5.93;2.80;;;;;;;18.58;50.33;100305.16;5022370;28;20029;-81
2022/09/26 05:18:10;;;;;;;7.70;2.83;;;;;;;18.88;50.77;100299.22;5014715;28;20490;-81
2022/09/26 05:20:36;;;;;;;6.57;2.77;;;;;;;19.21;49.38;100295.69;5030216;28;20030;-80
2022/09/26 05:23:05;;;;;;;5.13;2.73;;;;;;;18.64;50.88;100294.22;5011504;28;20030;-81
2022/09/26 05:28:25;;;;;;;5.50;2.20;;;;;;;18.00;51.23;100278.06;5023892;28;20071;-80
2022/09/26 05:30:51;;;;;;;5.37;2.73;;;;;;;18.24;51.58;100264.53;5025490;28;20371;-82
2022/09/26 05:33:20;;;;;;;6.37;2.53;;;;;;;17.91;53.31;100270.56;5013645;28;20030;-79
2022/09/26 05:35:52;;;;;;;4.50;2.47;;;;;;;17.76;51.63;100267.75;5024876;28;20022;-80
2022/09/26 05:38:18;;;;;;;7.82;3.33;;;;;;;17.39;52.89;100264.25;5018774;28;20037;-80
2022/09/26 05:40:56;;;;;;;6.07;2.43;;;;;;;17.77;52.48;100253.56;5027565;28;20022;-80
2022/09/26 05:43:29;;;;;;;9.00;2.43;;;;;;;18.23;49.88;100244.31;5024503;28;20026;-80
2022/09/26 05:46:04;;;;;;;5.73;2.37;;;;;;;18.26;50.22;100228.28;5031083;28;20049;-78
2022/09/26 05:48:31;;;;;;;3.27;1.70;;;;;;;18.14;50.17;100235.91;5018773;28;20347;-79
2022/09/26 05:51:02;;;;;;;6.07;2.17;;;;;;;18.19;50.81;100229.53;5015444;28;20494;-77
2022/09/26 05:53:28;;;;;;;5.70;2.10;;;;;;;18.51;50.05;100230.50;5011899;28;20306;-78
2022/09/26 05:55:53;;;;;;;6.37;2.33;;;;;;;17.85;50.83;100218.00;5045826;28;20044;-78
2022/09/26 05:58:19;;;;;;;5.70;2.40;;;;;;;18.00;50.76;100217.25;5022298;28;20101;-80
2022/09/26 06:00:48;;;;;;;5.73;2.70;;;;;;;19.21;47.62;100205.63;5016209;28;20028;-80
2022/09/26 06:03:14;;;;;;;10.23;2.28;;;;;;;18.79;49.04;100210.50;5031751;28;20053;-79
2022/09/26 06:05:41;;;;;;;4.03;2.37;;;;;;;17.75;51.34;100205.25;5022650;28;20061;-77
2022/09/26 06:08:08;;;;;;;8.30;2.23;;;;;;;18.56;50.11;100198.50;5024517;28;20028;-79
2022/09/26 06:10:39;;;;;;;7.33;2.90;;;;;;;18.38;50.02;100195.91;5028183;28;20576;-81
2022/09/26 06:13:06;;;;;;;7.30;3.10;;;;;;;18.77;49.52;100196.50;5018239;28;20033;-79
2022/09/26 06:15:32;;;;;;;7.17;2.50;;;;;;;18.57;49.68;100195.75;5023885;28;20660;-79
2022/09/26 06:18:06;;;;;;;4.53;1.92;;;;;;;17.72;51.99;100178.09;5011233;28;20117;-81
2022/09/26 06:20:32;;;;;;;6.87;2.47;;;;;;;18.75;49.67;100172.75;5029154;28;20112;-78
2022/09/26 06:23:01;;;;;;;13.90;2.43;;;;;;;19.19;48.23;100167.75;5031464;28;20021;-80
2022/09/26 06:25:28;;;;;;;7.47;1.90;;;;;;;18.50;49.50;100164.44;5030942;28;20112;-78
2022/09/26 06:27:55;;;;;;;7.95;2.25;;;;;;;18.57;49.53;100158.72;5026940;28;20045;-78
2022/09/26 06:30:22;;;;;;;9.32;2.55;;;;;;;18.66;48.63;100162.66;5030171;28;20037;-79
2022/09/26 06:32:48;;;;;;;5.38;2.13;;;;;;;19.08;48.67;100148.03;5020837;28;20029;-79
2022/09/26 06:35:13;;;;;;;7.05;2.35;;;;;;;19.00;49.13;100150.25;5031665;28;20063;-78
2022/09/26 06:37:39;;;;;;;6.03;2.20;;;;;;;18.56;50.35;100140.28;5026629;28;20026;-78
2022/09/26 06:40:07;;;;;;;12.70;3.47;;;;;;;18.76;49.66;100132.09;5019517;28;20022;-78
2022/09/26 06:42:36;;;;;;;5.40;2.10;;;;;;;17.96;52.01;100121.38;5033326;28;20060;-82
2022/09/26 06:45:01;;;;;;;11.25;2.35;;;;;;;18.55;51.37;100112.13;5032791;28;20561;-80
2022/09/26 06:47:28;;;;;;;7.32;2.85;;;;;;;18.06;52.50;100111.16;5038099;28;20057;-82
2022/09/26 06:49:53;;;;;;;5.00;2.22;;;;;;;18.45;51.67;100111.75;5036506;28;20033;-79
2022/09/26 06:52:19;;;;;;;4.90;1.88;;;;;;;18.83;50.63;100103.50;5032210;28;20083;-80
2022/09/26 06:54:44;;;;;;;7.78;2.42;;;;;;;18.44;51.38;100097.69;5032887;28;20049;-82
2022/09/26 06:57:13;;;;;;;4.50;1.90;;;;;;;18.50;51.26;100098.28;5030902;28;20036;-80
2022/09/26 06:59:38;;;;;;;5.20;1.90;;;;;;;18.39;51.16;100078.53;5030205;28;20481;-81
2022/09/26 07:02:05;;;;;;;6.82;2.10;;;;;;;18.11;51.35;100077.41;5015907;28;20044;-79
2022/09/26 07:04:30;;;;;;;7.97;2.20;;;;;;;18.48;51.84;100074.56;5033571;28;20021;-80
2022/09/26 07:06:58;;;;;;;7.97;3.13;;;;;;;18.03;52.74;100061.09;5035325;28;20389;-80
2022/09/26 07:09:24;;;;;;;6.72;2.40;;;;;;;19.08;50.08;100057.13;5018095;28;20076;-81
2022/09/26 07:11:50;;;;;;;3.78;1.80;;;;;;;18.29;51.45;100064.13;5016984;28;20552;-80
2022/09/26 07:14:15;;;;;;;4.45;2.08;;;;;;;19.17;50.40;100055.75;5023008;28;20033;-79
2022/09/26 07:16:41;;;;;;;7.25;2.10;;;;;;;18.48;51.94;100070.13;5014916;28;20107;-81
2022/09/26 07:19:06;;;;;;;3.85;2.10;;;;;;;18.94;50.63;100057.91;5017275;28;20025;-80
2022/09/26 07:21:32;;;;;;;6.65;2.17;;;;;;;19.71;49.21;100048.09;5037348;28;20030;-79
2022/09/26 07:23:57;;;;;;;10.82;2.40;;;;;;;19.89;48.79;100047.94;5037340;28;20029;-79
2022/09/26 07:26:23;;;;;;;9.23;2.17;;;;;;;19.15;50.84;100045.22;5052673;28;20113;-78
2022/09/26 07:28:48;;;;;;;5.38;1.80;;;;;;;19.99;47.79;100049.94;5025369;28;20444;-79
2022/09/26 07:31:14;;;;;;;4.95;1.90;;;;;;;19.52;48.96;100039.53;5031220;28;20037;-80
2022/09/26 07:33:40;;;;;;;8.25;1.98;;;;;;;19.45;50.07;100034.63;5032573;28;20029;-77
2022/09/26 07:36:08;;;;;;;5.97;2.03;;;;;;;19.18;51.25;100041.53;5034826;28;20022;-78
2022/09/26 07:38:33;;;;;;;2.72;1.73;;;;;;;20.16;47.54;100030.31;5023874;28;20033;-80
2022/09/26 07:40:59;;;;;;;3.47;1.90;;;;;;;19.62;49.17;100022.16;5022476;28;20477;-78
2022/09/26 07:43:25;;;;;;;7.47;2.53;;;;;;;20.21;47.15;100024.75;5033459;28;20025;-77
2022/09/26 07:51:37;;;;;;;10.23;2.55;;;;;;;19.68;49.80;100021.78;5100156;28;20411;-77
2022/09/26 07:54:03;;;;;;;6.22;2.08;;;;;;;19.02;51.31;100015.94;5102684;28;20080;-75
2022/09/26 07:56:33;;;;;;;9.52;1.88;;;;;;;19.32;49.74;100012.44;5107393;28;20117;-77
2022/09/26 07:59:02;;;;;;;6.75;1.60;;;;;;;19.22;51.02;100016.56;5122848;27;20463;-78
2022/09/26 08:01:28;;;;;;;6.65;2.03;;;;;;;18.58;53.33;100000.81;5106750;28;20084;-76
2022/09/26 08:03:56;;;;;;;4.82;1.92;;;;;;;18.07;54.91;100015.03;5092176;28;20028;-76
2022/09/26 08:06:22;;;;;;;5.03;2.53;;;;;;;19.25;51.01;100000.53;5103835;28;20076;-76
2022/09/26 08:08:52;;;;;;;3.60;1.80;;;;;;;18.77;54.30;100001.44;5106884;28;20028;-76
2022/09/26 08:11:19;;;;;;;8.77;1.85;;;;;;;19.00;54.30;100004.63;5107491;28;20024;-76
2022/09/26 08:13:45;;;;;;;8.90;2.47;;;;;;;18.98;54.63;99998.53;5104297;28;20032;-75
2022/09/26 08:16:17;;;;;;;10.40;3.20;;;;;;;18.26;59.15;99998.19;5093395;28;20031;-76
2022/09/26 08:18:43;;;;;;;8.70;2.58;;;;;;;18.54;56.78;99993.97;5103662;28;20020;-74
2022/09/26 08:21:08;;;;;;;6.10;2.10;;;;;;;17.96;61.41;99994.47;5097966;28;20023;-75
2022/09/26 08:23:34;;;;;;;10.45;2.28;;;;;;;18.84;59.72;99987.88;5106917;28;20400;-76
2022/09/26 08:26:03;;;;;;;9.73;2.20;;;;;;;18.53;59.59;99981.69;5104980;28;20180;-76
2022/09/26 08:28:29;;;;;;;10.27;2.10;;;;;;;19.24;56.21;99982.91;5101574;28;20039;-76
2022/09/26 08:30:59;;;;;;;5.90;2.35;;;;;;;18.67;59.65;99971.19;5107193;27;20024;-77
2022/09/26 08:33:25;;;;;;;6.35;2.58;;;;;;;18.85;58.79;99976.31;5099719;28;20020;-76
2022/09/26 08:35:50;;;;;;;4.75;2.35;;;;;;;18.35;59.93;99965.91;5103134;28;20020;-77
2022/09/26 08:38:16;;;;;;;5.67;2.27;;;;;;;18.33;61.19;99970.44;5107041;28;20020;-76
2022/09/26 08:41:01;;;;;;;4.60;2.00;;;;;;;18.82;61.47;99961.47;5106546;28;20475;-76
2022/09/26 08:43:33;;;;;;;8.00;2.72;;;;;;;18.54;59.75;99957.78;5106524;28;20031;-75
2022/09/26 08:46:31;;;;;;;6.70;2.50;;;;;;;18.24;61.78;99955.91;5106774;28;20173;-75
2022/09/26 08:49:16;;;;;;;5.03;2.60;;;;;;;18.76;62.16;99952.09;5104480;28;20041;-75
2022/09/26 08:51:47;;;;;;;8.03;2.43;;;;;;;18.41;63.29;99939.13;5112786;27;20054;-75
2022/09/26 08:54:18;;;;;;;6.20;2.57;;;;;;;18.47;64.72;99936.09;5107358;28;20028;-75
2022/09/26 08:56:50;;;;;;;7.78;3.05;;;;;;;18.63;62.46;99932.59;5105950;28;20027;-75
2022/09/26 08:59:39;;;;;;;7.93;2.83;;;;;;;18.84;62.55;99932.28;5098317;28;20032;-75
2022/09/26 09:02:17;;;;;;;10.45;3.42;;;;;;;18.91;63.88;99939.78;5109946;27;20448;-74
2022/09/26 09:04:51;;;;;;;3.97;2.80;;;;;;;18.24;68.43;99928.63;5109853;28;20020;-74
2022/09/26 09:07:21;;;;;;;9.10;3.05;;;;;;;19.18;64.78;99919.69;5100013;27;20037;-75
2022/09/26 09:09:48;;;;;;;8.82;3.85;;;;;;;19.29;61.94;99925.22;5091583;28;20077;-75
2022/09/26 09:12:20;;;;;;;10.13;3.20;;;;;;;18.87;63.85;99926.81;5091757;28;20094;-74
2022/09/26 09:15:03;;;;;;;8.27;2.90;;;;;;;18.94;64.32;99915.78;5093221;28;20043;-74
2022/09/26 09:17:31;;;;;;;;;;;;;;;19.72;61.97;99909.28;5092044;28;20300;-75
2022/09/26 09:20:21;;;;;;;10.02;3.45;;;;;;;19.47;60.14;99905.53;5091646;28;19933;-74
2022/09/26 09:23:12;;;;;;;7.97;3.72;;;;;;;19.85;60.57;99905.91;5109093;28;20127;-76
2022/09/26 09:25:48;;;;;;;6.82;3.08;;;;;;;20.02;60.45;99895.06;5109619;28;20043;-75
2022/09/26 09:28:45;;;;;;;11.90;4.72;;;;;;;19.25;63.43;99899.84;5089888;28;20058;-74
2022/09/26 09:31:14;;;;;;;9.07;3.22;;;;;;;19.43;61.89;99898.72;5100923;27;20610;-76
2022/09/26 09:34:02;;;;;;;5.78;3.08;;;;;;;19.44;64.46;99903.06;5092048;28;20039;-74
2022/09/26 09:36:36;;;;;;;12.98;3.13;;;;;;;19.35;62.89;99895.69;5092389;28;20024;-76
2022/09/26 09:39:08;;;;;;;6.70;2.72;;;;;;;19.64;63.00;99906.28;5089858;28;20488;-76
2022/09/26 09:41:42;;;;;;;11.13;2.67;;;;;;;18.60;66.42;99903.63;5096758;28;20040;-75
2022/09/26 09:44:45;;;;;;;7.30;3.10;;;;;;;18.68;69.57;99901.41;5081211;28;20081;-74
2022/09/26 09:47:13;;;;;;;9.43;3.58;;;;;;;17.85;73.49;99898.16;5086005;28;20057;-74
2022/09/26 09:49:40;;;;;;;9.02;3.47;;;;;;;18.21;73.91;99891.78;5103134;28;20039;-75
2022/09/26 09:52:06;;;;;;;12.88;3.72;;;;;;;18.51;69.83;99904.19;5086329;28;20020;-76
2022/09/26 09:55:08;;;;;;;7.80;3.95;;;;;;;18.27;69.75;99886.13;5093664;28;20034;-74
2022/09/26 09:57:55;;;;;;;9.38;3.75;;;;;;;18.63;71.39;99887.59;5094775;27;20086;-75
2022/09/26 10:00:23;;;;;;;10.98;3.85;;;;;;;18.69;70.52;99887.22;5105485;27;20121;-76
2022/09/26 10:03:10;;;;;;;6.47;3.25;;;;;;;17.62;79.95;99879.13;5094053;28;20076;-76
2022/09/26 10:05:43;;;;;;;12.50;3.77;;;;;;;18.48;74.10;99889.34;5089757;28;20032;-75
2022/09/26 10:08:14;;;;;;;7.85;3.42;;;;;;;18.46;74.14;99876.22;5082119;28;20028;-76
2022/09/26 10:10:44;;;;;;;10.00;4.68;;;;;;;18.58;73.68;99871.13;5090610;28;20036;-76
2022/09/26 10:13:09;;;;;;;6.55;3.95;;;;;;;18.61;72.81;99868.31;5090445;28;20161;-75
2022/09/26 10:15:40;;;;;;;7.72;3.78;;;;;;;18.06;77.15;99872.34;5092309;28;20488;-75
2022/09/26 10:18:10;;;;;;;8.25;3.88;;;;;;;18.43;73.96;99876.38;5093467;28;20024;-76
2022/09/26 10:20:51;;;;;;;8.25;4.10;;;;;;;19.63;67.22;99864.81;5077201;28;20035;-76
2022/09/26 10:23:31;;;;;;;6.20;4.70;;;;;;;19.83;63.12;99868.88;5093525;28;20024;-75
2022/09/26 10:26:02;;;;;;;7.38;4.20;;;;;;;19.07;71.34;99862.06;5092104;28;20024;-75
2022/09/26 10:28:44;;;;;;;9.32;4.30;;;;;;;17.83;79.39;99868.31;5090804;28;20020;-76
2022/09/26 10:31:11;;;;;;;7.35;4.05;;;;;;;18.93;72.76;99862.91;5090375;27;20431;-76
2022/09/26 10:33:43;;;;;;;6.35;4.22;;;;;;;17.93;78.25;99858.97;5103862;28;20106;-76
2022/09/26 10:36:20;;;;;;;9.55;4.35;;;;;;;18.63;80.19;99858.50;5092379;28;20028;-76
2022/09/26 10:41:43;;;;;;;5.03;4.25;;;;;;;17.49;88.33;99851.66;5088307;28;20046;-76
2022/09/26 10:44:29;;;;;;;;;;;;;;;19.03;73.50;99858.78;5092033;28;20039;-76
2022/09/26 10:46:58;;;;;;;7.13;4.57;;;;;;;18.00;84.99;99862.97;5080623;28;19973;-75
2022/09/26 10:49:31;;;;;;;8.68;4.55;;;;;;;18.13;87.95;99858.69;5090000;28;20475;-75
2022/09/26 10:52:10;;;;;;;7.03;5.50;;;;;;;18.34;80.04;99861.06;5094060;28;20066;-75
2022/09/26 10:54:52;;;;;;;8.53;5.00;;;;;;;17.81;85.37;99856.03;5091347;28;20476;-77
2022/09/26 10:57:27;;;;;;;8.38;5.38;;;;;;;18.13;88.37;99853.41;5092391;28;20024;-76
2022/09/26 10:59:54;;;;;;;7.90;5.60;;;;;;;18.89;79.52;99853.44;5091679;28;20453;-75
2022/09/26 11:02:23;;;;;;;8.55;6.03;;;;;;;18.16;85.04;99848.88;5089979;28;20023;-74
2022/09/26 11:07:44;;;;;;;7.43;6.55;;;;;;;18.99;77.18;99851.97;5085366;28;20086;-76
2022/09/26 11:10:13;;;;;;;7.50;5.63;;;;;;;19.32;74.59;99853.50;5079286;28;20028;-76
2022/09/26 11:12:54;;;;;;;5.75;5.15;;;;;;;18.38;83.53;99849.34;5087484;28;20028;-74
2022/09/26 11:15:19;;;;;;;9.45;5.15;;;;;;;18.11;86.71;99849.16;5097005;28;20027;-75
2022/09/26 11:17:46;;;;;;;7.85;5.88;;;;;;;19.07;74.97;99847.06;5090269;28;20020;-75
2022/09/26 11:20:37;;;;;;;8.40;5.43;;;;;;;19.66;76.08;99840.78;5089532;28;20028;-75
2022/09/26 11:23:36;;;;;;;10.10;6.10;;;;;;;19.05;76.90;99851.56;5088336;28;20031;-74
2022/09/26 11:26:32;;;;;;;13.10;6.40;;;;;;;19.77;72.11;99843.59;5090193;28;20039;-75
2022/09/26 11:29:02;;;;;;;7.03;6.20;;;;;;;18.34;81.08;99842.53;5089293;28;20549;-75
2022/09/26 11:31:39;;;;;;;7.55;5.80;;;;;;;18.99;77.77;99851.97;5090265;28;20499;-74
2022/09/26 11:34:13;;;;;;;7.68;5.95;;;;;;;18.52;80.06;99837.09;5102726;27;20153;-74
2022/09/26 11:37:10;;;;;;;7.68;6.85;;;;;;;20.44;67.14;99820.69;5090563;28;20051;-74
2022/09/26 11:40:00;;;;;;;5.57;5.07;;;;;;;19.02;75.46;99833.22;5090703;28;20066;-74
2022/09/26 11:42:42;;;;;;;5.85;4.20;;;;;;;18.77;75.83;99831.19;5103868;28;20127;-74
2022/09/26 11:45:40;;;;;;;4.65;3.95;;;;;;;19.52;72.67;99819.59;5100071;28;20063;-74
2022/09/26 11:48:27;;;;;;;6.07;4.72;;;;;;;19.30;74.84;99810.34;5082419;28;20426;-74
2022/09/26 11:51:09;;;;;;;6.63;4.78;;;;;;;19.42;73.67;99817.50;5084277;28;20032;-74
2022/09/26 11:54:11;;;;;;;6.07;4.97;;;;;;;19.74;73.79;99804.03;5091940;28;20031;-74
2022/09/26 11:56:55;;;;;;;5.50;4.72;;;;;;;20.31;66.13;99810.06;5101176;28;20035;-75
2022/09/26 11:59:46;;;;;;;5.05;4.55;;;;;;;20.35;66.43;99806.25;5091618;28;20545;-75
2022/09/26 12:02:36;;;;;;;6.15;4.00;;;;;;;20.65;62.16;99805.13;5087520;28;20395;-77
2022/09/26 12:05:23;;;;;;;3.63;3.33;;;;;;;19.36;75.85;99801.16;5090229;28;20388;-77
2022/09/26 12:08:13;;;;;;;4.43;2.72;;;;;;;20.39;63.70;99789.19;5090727;28;20032;-76